createdAt,value
2023-09-03T00:01:19.087Z,12.70
2023-09-03T00:06:28.526Z,12.68
2023-09-03T00:11:35.260Z,12.66
2023-09-03T00:16:43.507Z,12.70
2023-09-03T00:21:50.288Z,12.59
2023-09-03T00:26:56.813Z,12.61
2023-09-03T00:32:05.198Z,12.39
2023-09-03T00:37:11.683Z,12.38
2023-09-03T00:42:18.546Z,12.05
2023-09-03T00:47:26.803Z,12.15
2023-09-03T00:52:34.187Z,12.26
2023-09-03T00:57:40.792Z,12.29
2023-09-03T01:02:50.480Z,12.30
2023-09-03T01:07:58.859Z,12.15
2023-09-03T01:13:14.505Z,12.08
2023-09-03T01:18:24.626Z,12.08
2023-09-03T01:23:44.280Z,12.06
2023-09-03T01:28:54.112Z,11.77
2023-09-03T01:34:04.966Z,11.83
2023-09-03T01:39:11.651Z,11.91
2023-09-03T01:44:20.870Z,11.89
2023-09-03T01:49:41.855Z,11.45
2023-09-03T01:54:51.625Z,11.74
2023-09-03T02:00:04.101Z,11.37
2023-09-03T02:05:21.517Z,11.43
2023-09-03T02:10:28.219Z,11.67
2023-09-03T02:15:36.287Z,11.49
2023-09-03T02:20:43.053Z,11.41
2023-09-03T02:26:03.515Z,11.55
2023-09-03T02:31:11.366Z,11.26
2023-09-03T02:36:17.869Z,11.24
2023-09-03T02:41:24.287Z,11.28
2023-09-03T02:46:32.489Z,11.34
2023-09-03T02:51:40.365Z,11.43
2023-09-03T02:56:46.967Z,11.30
2023-09-03T03:01:54.968Z,11.06
2023-09-03T03:07:01.511Z,11.15
2023-09-03T03:12:09.030Z,11.30
2023-09-03T03:17:17.104Z,11.25
2023-09-03T03:22:23.838Z,11.14
2023-09-03T03:27:31.187Z,11.11
2023-09-03T03:32:39.150Z,11.11
2023-09-03T03:37:45.898Z,10.95
2023-09-03T03:42:52.695Z,10.94
2023-09-03T03:48:00.761Z,10.78
2023-09-03T03:53:09.981Z,10.51
2023-09-03T03:58:17.063Z,10.82
2023-09-03T04:03:29.240Z,10.94
2023-09-03T04:08:38.778Z,10.94
2023-09-03T04:13:45.463Z,10.95
2023-09-03T04:18:53.982Z,10.90
2023-09-03T04:24:00.569Z,10.89
2023-09-03T04:29:08.970Z,10.96
2023-09-03T04:34:16.968Z,11.10
2023-09-03T04:39:23.609Z,11.15
2023-09-03T04:44:30.370Z,11.16
2023-09-03T04:49:38.405Z,11.06
2023-09-03T04:54:45.299Z,11.18
2023-09-03T04:59:51.818Z,11.27
2023-09-03T05:05:00.627Z,11.27
2023-09-03T05:10:08.936Z,11.20
2023-09-03T05:15:16.460Z,11.29
2023-09-03T05:20:24.457Z,11.25
2023-09-03T05:25:31.125Z,11.30
2023-09-03T05:30:37.676Z,11.43
2023-09-03T05:35:46.688Z,11.51
2023-09-03T05:40:53.448Z,11.54
2023-09-03T05:46:01.860Z,11.66
2023-09-03T05:51:11.539Z,11.76
2023-09-03T05:56:20.996Z,11.84
2023-09-03T06:01:28.663Z,11.91
2023-09-03T06:06:41.240Z,11.98
2023-09-03T06:11:48.487Z,12.21
2023-09-03T06:16:55.575Z,12.58
2023-09-03T06:22:03.667Z,12.92
2023-09-03T06:27:10.249Z,13.12
2023-09-03T06:32:16.574Z,13.23
2023-09-03T06:37:24.528Z,13.28
2023-09-03T06:42:31.299Z,13.33
2023-09-03T06:47:40.162Z,13.48
2023-09-03T06:52:48.411Z,13.55
2023-09-03T06:57:55.761Z,13.60
2023-09-03T07:03:02.393Z,13.72
2023-09-03T07:08:10.902Z,13.94
2023-09-03T07:13:17.617Z,14.14
2023-09-03T07:18:24.458Z,14.40
2023-09-03T07:23:32.366Z,14.48
2023-09-03T07:28:40.539Z,14.57
2023-09-03T07:33:47.675Z,14.72
2023-09-03T07:38:55.880Z,14.87
2023-09-03T07:44:03.997Z,14.98
2023-09-03T07:49:10.623Z,15.08
2023-09-03T07:54:18.630Z,15.18
2023-09-03T07:59:25.326Z,15.23
2023-09-03T08:04:32.207Z,15.23
2023-09-03T08:09:40.186Z,15.40
2023-09-03T08:14:50.093Z,15.65
2023-09-03T08:19:57.181Z,15.71
2023-09-03T08:25:06.588Z,15.85
2023-09-03T08:30:14.464Z,15.97
2023-09-03T08:35:21.309Z,16.18
2023-09-03T08:40:29.845Z,16.38
2023-09-03T08:45:54.547Z,16.52
2023-09-03T08:51:02.100Z,16.69
2023-09-03T08:56:11.328Z,16.99
2023-09-03T09:01:19.848Z,17.01
2023-09-03T09:06:26.684Z,17.23
2023-09-03T09:11:41.992Z,17.44
2023-09-03T09:16:48.920Z,17.47
2023-09-03T09:21:56.108Z,17.64
2023-09-03T09:27:16.990Z,17.31
2023-09-03T09:32:26.920Z,17.08
2023-09-03T09:37:41.632Z,17.10
2023-09-03T09:42:58.114Z,17.19
2023-09-03T09:48:10.010Z,17.19
2023-09-03T09:53:26.402Z,17.30
2023-09-03T09:58:44.309Z,17.54
2023-09-03T10:03:53.175Z,17.60
2023-09-03T10:09:00.234Z,17.64
2023-09-03T10:14:08.947Z,18.14
2023-09-03T10:19:20.448Z,18.08
2023-09-03T10:24:29.805Z,17.94
2023-09-03T10:29:39.627Z,18.32
2023-09-03T10:34:46.475Z,18.71
2023-09-03T10:39:53.197Z,18.96
2023-09-03T10:45:03.909Z,19.03
2023-09-03T10:50:11.914Z,19.06
2023-09-03T10:55:21.806Z,19.13
2023-09-03T11:00:31.018Z,19.31
2023-09-03T11:05:38.805Z,19.41
2023-09-03T11:10:46.435Z,19.40
2023-09-03T11:15:58.624Z,19.39
2023-09-03T11:21:07.452Z,19.35
2023-09-03T11:26:18.282Z,19.23
2023-09-03T11:31:28.377Z,18.99
2023-09-03T11:36:36.501Z,18.94
2023-09-03T11:41:45.687Z,19.09
2023-09-03T11:47:05.982Z,19.00
2023-09-03T11:52:15.817Z,19.10
2023-09-03T11:57:23.746Z,19.21
2023-09-03T12:02:34.654Z,19.32
2023-09-03T12:07:43.992Z,19.23
2023-09-03T12:12:51.347Z,19.23
2023-09-03T12:18:10.494Z,19.29
2023-09-03T12:23:21.232Z,19.53
2023-09-03T12:28:41.746Z,19.49
2023-09-03T12:33:54.044Z,19.45
2023-09-03T12:39:06.235Z,19.31
2023-09-03T12:44:14.926Z,19.35
2023-09-03T12:49:24.083Z,19.28
2023-09-03T12:54:33.284Z,19.31
2023-09-03T12:59:42.544Z,19.30
2023-09-03T13:04:52.996Z,19.27
2023-09-03T13:10:00.658Z,19.24
2023-09-03T13:15:11.881Z,19.18
2023-09-03T13:20:24.022Z,19.22
2023-09-03T13:25:35.563Z,19.20
2023-09-03T13:30:54.042Z,19.18
2023-09-03T13:36:19.127Z,19.25
2023-09-03T13:41:29.536Z,19.26
2023-09-03T13:46:39.142Z,19.41
2023-09-03T13:51:50.972Z,19.56
2023-09-03T13:56:59.205Z,19.58
2023-09-03T14:02:08.044Z,19.52
2023-09-03T14:07:19.715Z,19.43
2023-09-03T14:12:30.435Z,19.38
2023-09-03T14:17:39.493Z,19.31
2023-09-03T14:22:50.575Z,19.31
2023-09-03T14:28:00.560Z,19.32
2023-09-03T14:33:09.460Z,19.22
2023-09-03T14:38:20.184Z,19.16
2023-09-03T14:43:31.408Z,19.13
2023-09-03T14:48:40.462Z,19.14
2023-09-03T14:53:51.118Z,19.17
2023-09-03T14:59:03.226Z,19.19
2023-09-03T15:04:10.813Z,19.10
2023-09-03T15:09:19.834Z,19.02
2023-09-03T15:14:27.646Z,19.02
2023-09-03T15:19:35.662Z,19.01
2023-09-03T15:24:46.610Z,18.98
2023-09-03T15:29:55.297Z,18.96
2023-09-03T15:35:03.597Z,18.94
2023-09-03T15:40:17.258Z,18.89
2023-09-03T15:45:26.802Z,18.83
2023-09-03T15:50:42.849Z,18.80
2023-09-03T15:55:53.267Z,18.76
2023-09-03T16:01:08.527Z,18.77
2023-09-03T16:06:16.508Z,18.78
2023-09-03T16:11:25.900Z,18.69
2023-09-03T16:16:34.355Z,18.58
2023-09-03T16:21:43.298Z,18.42
2023-09-03T16:26:55.135Z,18.34
2023-09-03T16:32:06.456Z,18.26
2023-09-03T16:37:15.636Z,18.15
2023-09-03T16:42:31.620Z,18.05
2023-09-03T16:47:41.176Z,17.94
2023-09-03T16:52:50.087Z,17.72
2023-09-03T16:58:00.703Z,17.67
2023-09-03T17:03:10.195Z,17.59
2023-09-03T17:08:24.707Z,17.44
2023-09-03T17:13:35.484Z,17.35
2023-09-03T17:18:46.901Z,17.27
2023-09-03T17:23:55.210Z,17.16
2023-09-03T17:29:08.807Z,17.04
2023-09-03T17:34:19.825Z,17.01
2023-09-03T17:39:33.749Z,16.89
2023-09-03T17:44:44.196Z,16.81
2023-09-03T17:49:55.476Z,16.79
2023-09-03T17:55:05.115Z,16.74
2023-09-03T18:00:16.767Z,16.69
2023-09-03T18:05:27.249Z,16.67
2023-09-03T18:10:37.286Z,16.63
2023-09-03T18:15:49.584Z,16.57
2023-09-03T18:21:00.528Z,16.39
2023-09-03T18:26:13.000Z,16.39
2023-09-03T18:31:27.187Z,16.32
2023-09-03T18:36:43.080Z,16.26
2023-09-03T18:41:53.183Z,16.20
2023-09-03T18:47:04.073Z,16.15
2023-09-03T18:52:13.983Z,16.16
2023-09-03T18:57:23.045Z,16.15
2023-09-03T19:02:35.435Z,16.07
2023-09-03T19:07:46.485Z,16.02
2023-09-03T19:12:59.038Z,15.90
2023-09-03T19:18:12.829Z,15.87
2023-09-03T19:23:22.210Z,15.88
2023-09-03T19:28:33.849Z,15.74
2023-09-03T19:33:47.254Z,15.77
2023-09-03T19:38:58.612Z,15.79
2023-09-03T19:44:06.681Z,15.76
2023-09-03T19:49:24.555Z,15.74
2023-09-03T19:54:37.705Z,15.73
2023-09-03T19:59:46.333Z,15.70
2023-09-03T20:04:56.871Z,15.60
2023-09-03T20:10:07.306Z,15.62
2023-09-03T20:15:21.125Z,15.53
2023-09-03T20:20:33.597Z,15.48
2023-09-03T20:25:43.739Z,15.49
2023-09-03T20:30:53.334Z,15.45
2023-09-03T20:36:06.164Z,15.36
2023-09-03T20:41:14.420Z,15.44
2023-09-03T20:46:21.995Z,15.38
2023-09-03T20:51:32.127Z,15.40
2023-09-03T20:56:40.130Z,15.41
2023-09-03T21:01:47.433Z,15.34
2023-09-03T21:06:56.540Z,15.30
2023-09-03T21:12:03.206Z,15.29
2023-09-03T21:17:10.011Z,15.26
2023-09-03T21:22:19.142Z,15.31
2023-09-03T21:27:25.648Z,15.35
2023-09-03T21:32:32.110Z,15.36
2023-09-03T21:37:43.168Z,15.39
2023-09-03T21:42:52.434Z,15.41
2023-09-03T21:47:59.420Z,15.46
2023-09-03T21:53:07.592Z,15.49
2023-09-03T21:58:14.339Z,15.53
2023-09-03T22:03:21.237Z,15.55
2023-09-03T22:08:29.575Z,15.55
2023-09-03T22:13:36.442Z,15.58
2023-09-03T22:18:56.483Z,15.59
2023-09-03T22:24:05.266Z,15.59
2023-09-03T22:29:12.031Z,15.62
2023-09-03T22:34:18.480Z,15.60
2023-09-03T22:39:26.250Z,15.61
2023-09-03T22:44:32.918Z,15.63
2023-09-03T22:49:39.409Z,15.61
2023-09-03T22:54:47.324Z,15.62
2023-09-03T22:59:54.047Z,15.60
2023-09-03T23:05:00.745Z,15.61
2023-09-03T23:10:10.063Z,15.59
2023-09-03T23:15:17.557Z,15.59
2023-09-03T23:20:24.642Z,15.59
2023-09-03T23:25:32.703Z,15.58
2023-09-03T23:30:39.135Z,15.57
2023-09-03T23:35:45.541Z,15.56
2023-09-03T23:40:53.314Z,15.54
2023-09-03T23:45:59.625Z,15.52
2023-09-03T23:51:06.169Z,15.53
2023-09-03T23:56:14.171Z,15.49
